This is the latest recevied weather packets stored in our database for station/object MB7UCW-13. If no packets are shown the sender has not sent any weather packets the latest 10 day(s).
| Time | Temp. | Humidity | Pressure | Rain* | Wind** | Luminosity | Snow |
|---|---|---|---|---|---|---|---|
| 1777599903 | 9.44° C | 65% | 1020.1 hPa | 0 mm | - | 0 W/m² | - |
| 1777597203 | 11.11° C | 56% | 1020.3 hPa | 0 mm | - | 0 W/m² | - |
| 1777590903 | 13.89° C | 47% | 1020.7 hPa | 0 mm | - | 0 W/m² | - |
| 1777588203 | 14.44° C | 47% | 1020.8 hPa | 0 mm | - | 0 W/m² | - |
| 1777585503 | 15° C | 46% | 1020.7 hPa | 0 mm | - | 0 W/m² | - |
| 1777584603 | 15° C | 47% | 1020.7 hPa | 0 mm | - | 0 W/m² | - |
| 1777578303 | 18.33° C | 36% | 1019.9 hPa | 0 mm | - | 0 W/m² | - |
| 1777575625 | 19.44° C | 35% | 1019.6 hPa | 0 mm | - | 11 W/m² | - |
| 1777569303 | 22.22° C | 32% | 1019.5 hPa | 0 mm | - | 246 W/m² | - |
| 1777567503 | 22.78° C | 32% | 1019.8 hPa | 0 mm | - | 353 W/m² | - |
| 1777564803 | 23.33° C | 32% | 1019.9 hPa | 0 mm | - | 464 W/m² | - |
| 1777558504 | 22.78° C | 35% | 1020.5 hPa | 0 mm | - | 682 W/m² | - |
| 1777554904 | 22.22° C | 35% | 1021.1 hPa | 0 mm | - | 756 W/m² | - |
| 1777553104 | 21.67° C | 36% | 1021.2 hPa | 0 mm | - | 780 W/m² | - |
| 1777552204 | 22.22° C | 38% | 1021.3 hPa | 0 mm | - | 789 W/m² | - |
| 1777544104 | 18.89° C | 42% | 1022.6 hPa | 0 mm | - | 721 W/m² | - |
| 1777539603 | 16.67° C | 53% | 1023.4 hPa | 0 mm | - | 592 W/m² | - |
| 1777537804 | 15.56° C | 54% | 1023.5 hPa | 0 mm | - | 524 W/m² | - |
| 1777536904 | 15° C | 55% | 1023.8 hPa | 0 mm | - | 492 W/m² | - |
| 1777535104 | 14.44° C | 59% | 1024 hPa | 0 mm | - | 418 W/m² | - |
| 1777530604 | 11.67° C | 68% | 1024.2 hPa | 0 mm | - | 213 W/m² | - |
| 1777524302 | 8.89° C | 73% | 1024.4 hPa | 0 mm | - | 0 W/m² | - |
| 1777523402 | 8.89° C | 73% | 1024.4 hPa | 0 mm | - | 0 W/m² | - |
| 1777519802 | 8.89° C | 71% | 1024.5 hPa | 0 mm | - | 0 W/m² | - |
| 1777518923 | 9.44° C | 71% | 1024.6 hPa | 0 mm | - | 0 W/m² | - |
* Rain latest hour (hover to see other rain measurements)
** Current wind speed in m/s (hover to see current wind gust speed)